Accueil
METAR-TAF:

METAR-TAF

Aéroports :

Aéroport international de Tunis-Carthage

Tunis, Tunisie

latitude: 36-50N, longitude: 010-14E, altitude: 3 m

Observation

Le bulletin a été fait il y a 17 minutes, à 04:00 UTC
Vent 1 kt de nord
Température 22°C
Humidité 73%
Pression 1015 hPa
Visibilité 10 km ou plus
pas de nuages en-dessous de 1500 mètres et pas de cumulonimbus.

METAR: DTTA 110400Z 35001KT CAVOK 22/17 Q1015

Heure: 05:17 (04:17 UTC)

Prévision

Le bulletin a été fait il y a 5 heures et 17 minutes, à 23:00 UTC
Prévision valable du 11 à 00 UTC au 11 à 24 UTC
Vent 2 kt de direction variable
Visibilité 10 km ou plus
pas de nuages en-dessous de 1500 mètres et pas de cumulonimbus.
Evoluant progressivement
du 11 à 09 UTC au 11 à 11 UTC
Vent 10 kt de est/nord-est

TAF: DTTA 102300Z 1100/1124 VRB02KT CAVOK BECMG 1109/1111 07010KT

Observations et prévisions météorologiques de plus de 4000 aéroports (messages METAR et TAF).

Les stations disponibles sont représentées par des disques jaunes et rouges sur la carte.

Passer la souris dessus pour voir le nom de la station.

Cliquer dessus pour voir les observations et prévisions météorologiques.

Pour changer de carte: cliquez sur les boutons verts avec une croix noire pour zoomer, sur le bouton vert avec un tiret pour effectuer un zoom arrière, ou sur les flèches vertes pour les cartes adjacentes.


METAR-TAF: